Detroit, MI

4:46 PM EDT on May 06, 2015 (GMT -0400)
Detroit Metro Wayne County | | Change Station
CLOSE
Current Station
Airport
Location: Detroit Metro,
Elevation: 663 ft
Nearby Weather Stations

Elev 663 ft 42.23 °N, 83.33 °W | Updated 53 minutes ago

Partly Cloudy
Partly Cloudy
70 °F
Feels Like 70 °F
N
0
Wind Variable Wind from North

Today
High -- | Low -- °F
--% Chance of Precip.
Yesterday
High -- | Low -- °F
Precip. -- in
6:21 AM 8:37 PM
Waning Gibbous, 92% visible
Pressure 30.21 in
Visibility 10.0 miles
Clouds Scattered Clouds 2000 ft
Mostly Cloudy 20000 ft
Dew Point 59 °F
Humidity 68%
Rainfall 0.59 in
Snow Depth Not available.
UV 4 out of 12
Pollen 8.10 out of 12
Air Quality Not available.
Flu Activity Regional
METAR KDTW 061953Z 00000KT 10SM SCT020 BKN200 21/15 A3021 RMK AO2 SLP229 T02110150 PNO $

More Conditions Fewer Conditions

Pressure 30.21 in
Visibility 10.0 miles
Clouds Scattered Clouds 2000 ft
Mostly Cloudy 20000 ft
Dew Point 59 °F
Humidity 68%
Rainfall 0.59 in
Snow Depth Not available.
UV 4 out of 12
Pollen 8.10 out of 12
Air Quality Not available.
Flu Activity Regional
METAR KDTW 061953Z 00000KT 10SM SCT020 BKN200 21/15 A3021 RMK AO2 SLP229 T02110150 PNO $

More Conditions Fewer Conditions

10-Day Weather Forecast

Almanac

Astronomy

May. 06, 2015 Rise Set
Actual Time
Civil Twilight
Nautical Twilight
Astronomical Twilight
Moon
Length of Visible Light
Length of Day
Tomorrow will be .
, % of the Moon is Illuminated

Today's Extremes

State Highs State Lows

Community

WunderPhotos

Upload Photos

1,819,012 photos uploaded!

WunderBlogs® & News

Nearby

Air Quality

  Air Quality AQ Index Pollutant
Not available.

Snow Depth

Station Depth Elevation

Earthquake Activity

City Distance Mag. Time & Date
Minimum magnitude displayed is 2.5.

Coastal Water Temperatures

Place Temperature

Stations

Nearby Weather Stations

Station Location Temp. Windchill Dew Point Humidity Wind Precip. Elev Updated Type